Time;durP1;ratioP1;P1;durP2;ratioP2;P2;SDS_P1;SDS_P2;PMS_P1;PMS_P2;Temp;Humidity;BMP_temperature;BMP_pressure;BME280_temperature;BME280_humidity;BME280_pressure;Samples;Min_cycle;Max_cycle;Signal;HPM_P1;HPM_P2
2022/08/07 00:00:49;;;;;;;1.05;1.05;;;20.80;63.80;;;;;;5063715;28;20285;-42
2022/08/07 00:03:16;;;;;;;1.52;1.00;;;20.90;63.90;;;;;;5063893;28;20194;-40
2022/08/07 00:05:43;;;;;;;1.20;1.10;;;20.80;63.80;;;;;;5066641;28;20753;-41
2022/08/07 00:08:10;;;;;;;0.80;0.80;;;20.90;64.00;;;;;;5064429;28;20569;-42
2022/08/07 00:10:37;;;;;;;0.70;0.70;;;20.90;64.00;;;;;;5067685;28;20193;-48
2022/08/07 00:13:06;;;;;;;0.90;0.90;;;20.90;64.10;;;;;;5068154;28;20276;-45
2022/08/07 00:15:34;;;;;;;0.80;0.80;;;20.80;64.00;;;;;;5067422;28;20691;-45
2022/08/07 00:18:01;;;;;;;0.80;0.80;;;20.90;64.20;;;;;;5067472;28;20232;-39
2022/08/07 00:20:28;;;;;;;1.23;1.10;;;20.90;64.30;;;;;;5067335;28;20234;-39
2022/08/07 00:22:55;;;;;;;2.88;1.27;;;20.90;64.30;;;;;;5067073;28;20664;-42
2022/08/07 00:25:23;;;;;;;1.63;1.30;;;20.90;64.40;;;;;;5065889;28;20474;-48
2022/08/07 00:27:51;;;;;;;1.48;1.00;;;20.80;64.60;;;;;;5062991;28;20268;-45
2022/08/07 00:30:19;;;;;;;1.13;1.02;;;20.80;64.70;;;;;;5065317;28;20216;-42
2022/08/07 00:32:49;;;;;;;0.82;0.82;;;20.80;64.80;;;;;;5064672;28;20251;-43
2022/08/07 00:35:34;;;;;;;0.85;0.85;;;20.80;64.90;;;;;;5064405;28;20212;-47
2022/08/07 00:38:01;;;;;;;0.90;0.90;;;20.80;65.00;;;;;;5067091;28;20221;-45
2022/08/07 00:40:29;;;;;;;1.00;1.00;;;20.80;65.10;;;;;;5064288;28;20629;-44
2022/08/07 00:42:57;;;;;;;0.98;0.98;;;20.70;65.30;;;;;;5063603;28;20201;-49
2022/08/07 00:45:24;;;;;;;1.10;1.00;;;20.70;65.50;;;;;;5067603;28;20207;-40
2022/08/07 00:47:52;;;;;;;1.33;1.23;;;20.70;65.60;;;;;;5065539;28;20315;-42
2022/08/07 00:50:19;;;;;;;1.17;1.13;;;20.60;65.70;;;;;;5067942;28;20645;-45
2022/08/07 00:52:46;;;;;;;1.38;1.27;;;20.60;66.00;;;;;;5067599;28;20208;-38
2022/08/07 00:55:13;;;;;;;1.35;1.10;;;20.60;66.00;;;;;;5069016;28;20236;-49
2022/08/07 00:57:40;;;;;;;0.90;0.90;;;20.70;66.10;;;;;;5066123;28;20213;-42
2022/08/07 01:00:09;;;;;;;2.80;0.80;;;20.60;66.00;;;;;;5068051;28;20200;-42
2022/08/07 01:02:36;;;;;;;1.85;1.30;;;20.60;66.10;;;;;;5069691;28;20197;-39
2022/08/07 01:05:07;;;;;;;1.20;1.10;;;20.50;66.50;;;;;;5067978;28;20200;-40
2022/08/07 01:07:34;;;;;;;1.05;1.05;;;20.50;66.50;;;;;;5065980;28;20278;-40
2022/08/07 01:10:01;;;;;;;3.45;1.13;;;20.50;66.80;;;;;;5069768;28;20632;-43
2022/08/07 01:12:29;;;;;;;1.10;1.10;;;20.50;66.80;;;;;;5067903;28;20228;-46
2022/08/07 01:14:58;;;;;;;1.00;1.00;;;20.50;66.80;;;;;;5066311;28;20209;-46
2022/08/07 01:17:26;;;;;;;1.38;1.27;;;20.40;66.90;;;;;;5067189;28;20209;-45
2022/08/07 01:19:57;;;;;;;1.00;1.00;;;20.50;67.30;;;;;;5063858;28;20198;-40
2022/08/07 01:22:25;;;;;;;2.03;1.40;;;20.40;67.20;;;;;;5064317;28;20213;-44
2022/08/07 01:24:53;;;;;;;1.73;1.40;;;20.40;67.60;;;;;;5064693;28;20362;-42
2022/08/07 01:27:20;;;;;;;1.05;1.05;;;20.40;67.60;;;;;;5063986;28;20669;-47
2022/08/07 01:29:48;;;;;;;1.85;1.10;;;20.30;67.60;;;;;;5062456;28;20518;-44
2022/08/07 01:32:16;;;;;;;1.33;1.23;;;20.30;67.70;;;;;;5064317;28;20204;-48
2022/08/07 01:34:46;;;;;;;1.45;1.35;;;20.30;67.70;;;;;;5064015;28;20205;-42
2022/08/07 01:37:16;;;;;;;1.10;1.10;;;20.30;67.80;;;;;;5064437;28;20213;-44
2022/08/07 01:39:46;;;;;;;1.30;1.20;;;20.30;67.70;;;;;;5064124;28;20209;-40
2022/08/07 01:42:21;;;;;;;1.38;1.20;;;20.40;67.80;;;;;;5064641;28;20197;-41
2022/08/07 01:44:49;;;;;;;2.20;1.35;;;20.30;67.90;;;;;;5061902;28;20193;-42
2022/08/07 01:47:16;;;;;;;1.85;1.20;;;20.30;68.00;;;;;;5066987;28;20202;-42
2022/08/07 01:49:44;;;;;;;2.03;1.30;;;20.30;68.10;;;;;;5066298;28;20202;-45
2022/08/07 01:52:12;;;;;;;1.48;1.38;;;20.30;69.00;;;;;;5063614;28;20201;-44
2022/08/07 01:54:41;;;;;;;1.42;1.10;;;20.30;68.40;;;;;;5063233;28;20256;-44
2022/08/07 01:57:19;;;;;;;1.73;1.63;;;20.30;68.40;;;;;;5064703;28;20235;-45
2022/08/07 01:59:53;;;;;;;1.40;1.38;;;20.20;68.60;;;;;;5062513;28;20263;-40
2022/08/07 02:02:26;;;;;;;2.25;1.88;;;20.20;68.70;;;;;;5066329;28;20197;-43
2022/08/07 02:05:01;;;;;;;2.00;1.70;;;20.20;68.80;;;;;;5060148;28;20193;-47
2022/08/07 02:07:34;;;;;;;1.70;1.60;;;20.20;69.60;;;;;;5064914;28;20660;-42
2022/08/07 02:10:03;;;;;;;1.85;1.75;;;20.20;68.90;;;;;;5065890;28;20197;-45
2022/08/07 02:12:41;;;;;;;2.80;1.90;;;20.20;68.90;;;;;;5066644;28;20282;-48
2022/08/07 02:15:13;;;;;;;3.30;1.42;;;20.20;69.10;;;;;;5067140;28;20217;-42
2022/08/07 02:17:43;;;;;;;1.83;1.58;;;20.20;69.10;;;;;;5067140;28;20224;-43
2022/08/07 02:20:12;;;;;;;2.60;1.55;;;20.20;69.20;;;;;;5069506;28;20220;-45
2022/08/07 02:22:40;;;;;;;2.42;1.42;;;20.20;69.30;;;;;;5070188;28;20220;-48
2022/08/07 02:25:10;;;;;;;1.10;1.10;;;20.20;69.30;;;;;;5067357;28;20237;-44
2022/08/07 02:27:41;;;;;;;1.58;1.10;;;20.10;69.30;;;;;;5067454;28;20193;-40
2022/08/07 02:30:11;;;;;;;1.10;1.10;;;20.20;69.50;;;;;;5065302;28;20201;-39
2022/08/07 02:32:38;;;;;;;1.67;1.33;;;20.10;69.40;;;;;;5070596;28;20201;-40
2022/08/07 02:35:07;;;;;;;0.80;0.80;;;20.10;69.40;;;;;;5066895;28;20644;-38
2022/08/07 02:37:39;;;;;;;1.10;1.00;;;20.10;69.50;;;;;;5065196;28;20699;-42
2022/08/07 02:40:10;;;;;;;0.95;0.95;;;20.10;69.60;;;;;;5071465;28;20627;-41
2022/08/07 02:42:39;;;;;;;1.00;1.00;;;20.10;69.70;;;;;;5068839;28;20538;-41
2022/08/07 02:45:10;;;;;;;1.30;1.20;;;20.10;69.70;;;;;;5066530;28;20193;-43
2022/08/07 02:47:38;;;;;;;1.35;1.10;;;20.10;69.80;;;;;;5068426;28;20641;-42
2022/08/07 02:50:15;;;;;;;1.08;0.93;;;20.10;69.80;;;;;;5067509;28;20230;-43
2022/08/07 02:52:46;;;;;;;1.20;1.00;;;20.10;69.90;;;;;;5069117;28;20225;-40
2022/08/07 02:55:19;;;;;;;1.00;1.00;;;20.10;70.80;;;;;;5066801;28;20212;-39
2022/08/07 02:57:50;;;;;;;1.00;1.00;;;20.00;70.20;;;;;;5066792;28;20209;-41
2022/08/07 03:00:18;;;;;;;2.50;1.55;;;20.00;70.20;;;;;;5063573;28;20205;-38
2022/08/07 03:02:47;;;;;;;1.60;1.13;;;20.00;70.60;;;;;;5067384;28;20197;-40
2022/08/07 03:05:17;;;;;;;1.20;1.10;;;20.00;70.70;;;;;;5065998;28;20193;-39
2022/08/07 03:07:46;;;;;;;1.13;1.10;;;20.00;71.10;;;;;;5064356;28;20654;-39
2022/08/07 03:10:15;;;;;;;1.17;1.00;;;19.90;70.90;;;;;;5067227;28;20269;-40
2022/08/07 03:12:45;;;;;;;1.77;1.40;;;19.90;71.00;;;;;;5069058;28;20201;-40
2022/08/07 03:15:16;;;;;;;1.10;1.00;;;19.90;71.30;;;;;;5068344;28;20548;-39
2022/08/07 03:17:45;;;;;;;3.17;1.10;;;19.80;71.20;;;;;;5066242;28;20580;-40
2022/08/07 03:20:13;;;;;;;0.95;0.93;;;19.80;71.30;;;;;;5068310;28;20246;-43
2022/08/07 03:22:43;;;;;;;1.05;1.00;;;19.80;71.30;;;;;;5066547;28;20739;-45
2022/08/07 03:25:12;;;;;;;1.92;1.10;;;19.80;71.40;;;;;;5065685;28;20705;-43
2022/08/07 03:27:43;;;;;;;2.85;1.27;;;19.80;71.40;;;;;;5064973;28;20205;-40
2022/08/07 03:30:16;;;;;;;1.67;1.20;;;19.80;71.80;;;;;;5063861;28;20229;-44
2022/08/07 03:32:49;;;;;;;1.40;1.10;;;19.80;71.80;;;;;;5066862;28;20193;-40
2022/08/07 03:35:21;;;;;;;1.63;1.10;;;19.80;71.70;;;;;;5068256;28;20205;-41
2022/08/07 03:37:56;;;;;;;0.98;0.98;;;19.80;71.80;;;;;;5066909;28;20190;-38
2022/08/07 03:40:28;;;;;;;1.05;0.90;;;19.90;72.10;;;;;;5067988;28;20384;-41
2022/08/07 03:42:57;;;;;;;1.00;1.00;;;19.90;72.10;;;;;;5067692;28;20220;-40
2022/08/07 03:45:28;;;;;;;2.10;1.17;;;19.90;72.10;;;;;;5068749;28;20201;-43
2022/08/07 03:47:59;;;;;;;1.40;1.10;;;20.00;72.30;;;;;;5068784;28;20723;-40
2022/08/07 03:50:28;;;;;;;1.58;0.90;;;20.00;72.40;;;;;;5066980;28;20213;-40
2022/08/07 03:52:57;;;;;;;0.80;0.80;;;20.00;72.40;;;;;;5065531;28;20212;-42
2022/08/07 03:55:24;;;;;;;1.50;0.90;;;20.00;72.50;;;;;;5063809;28;20271;-39
2022/08/07 03:57:52;;;;;;;1.48;0.90;;;20.00;72.50;;;;;;5064879;28;20268;-41
2022/08/07 04:00:19;;;;;;;0.75;0.75;;;20.00;72.50;;;;;;5062778;28;20194;-43
2022/08/07 04:02:52;;;;;;;0.93;0.88;;;20.00;72.60;;;;;;5066355;28;20201;-40
2022/08/07 04:05:35;;;;;;;1.05;0.93;;;20.10;72.70;;;;;;5066175;28;20661;-41
2022/08/07 04:08:04;;;;;;;0.80;0.80;;;20.10;72.80;;;;;;5064708;28;20201;-43
2022/08/07 04:10:32;;;;;;;1.00;0.90;;;20.10;72.80;;;;;;5067384;28;20307;-41
2022/08/07 04:12:59;;;;;;;0.88;0.88;;;20.10;72.90;;;;;;5066646;28;20517;-41
2022/08/07 04:15:27;;;;;;;0.82;0.82;;;20.10;72.80;;;;;;5062615;28;20212;-43
2022/08/07 04:17:56;;;;;;;1.05;1.00;;;20.10;72.90;;;;;;5101041;28;20660;-45
2022/08/07 04:20:23;;;;;;;1.20;1.10;;;20.10;73.00;;;;;;5064421;28;20198;-40
2022/08/07 04:22:52;;;;;;;0.80;0.80;;;20.10;73.30;;;;;;5067397;28;20672;-40
2022/08/07 04:25:20;;;;;;;2.40;1.20;;;20.10;73.30;;;;;;5063955;28;20228;-41
2022/08/07 04:27:47;;;;;;;0.80;0.80;;;20.10;73.50;;;;;;5067600;28;20724;-43
2022/08/07 04:30:18;;;;;;;0.70;0.70;;;20.10;73.60;;;;;;5064517;28;20197;-40
2022/08/07 04:33:09;;;;;;;1.00;1.00;;;20.20;74.30;;;;;;5065422;28;20202;-39
2022/08/07 04:35:39;;;;;;;1.10;1.10;;;20.20;73.50;;;;;;5066417;28;20513;-39
2022/08/07 04:38:11;;;;;;;1.10;0.90;;;20.20;73.50;;;;;;5063950;28;20223;-41
2022/08/07 04:40:41;;;;;;;1.58;1.00;;;20.20;73.60;;;;;;5064008;28;20246;-42
2022/08/07 04:43:08;;;;;;;0.90;0.90;;;20.20;73.70;;;;;;5064639;28;20271;-39
2022/08/07 04:45:43;;;;;;;1.00;1.00;;;20.20;73.80;;;;;;5062426;28;20521;-39
2022/08/07 04:48:19;;;;;;;1.88;1.10;;;20.20;73.70;;;;;;5064360;28;20203;-40
2022/08/07 04:50:53;;;;;;;0.90;0.90;;;20.30;73.80;;;;;;5068882;28;20294;-40
2022/08/07 04:53:27;;;;;;;1.25;1.00;;;20.30;73.80;;;;;;5098086;28;20209;-40
2022/08/07 04:56:01;;;;;;;0.82;0.82;;;20.30;73.70;;;;;;5065580;28;20193;-38
2022/08/07 04:58:37;;;;;;;0.80;0.80;;;20.30;73.80;;;;;;5062787;28;20266;-38
2022/08/07 05:01:17;;;;;;;0.70;0.70;;;20.30;73.90;;;;;;5063815;28;20561;-40
2022/08/07 05:03:51;;;;;;;1.73;1.00;;;20.30;74.00;;;;;;5063807;28;20197;-39
2022/08/07 05:06:23;;;;;;;2.78;0.80;;;20.30;74.10;;;;;;5066543;28;20227;-42
2022/08/07 05:09:01;;;;;;;3.38;1.02;;;20.40;74.20;;;;;;5062529;28;20199;-40
2022/08/07 05:11:33;;;;;;;0.77;0.77;;;20.40;75.00;;;;;;5064009;28;20202;-40
2022/08/07 05:14:05;;;;;;;1.65;0.88;;;20.40;74.30;;;;;;5064366;28;20208;-40
2022/08/07 05:16:37;;;;;;;0.90;0.90;;;20.40;74.30;;;;;;5064941;28;20197;-42
2022/08/07 05:19:10;;;;;;;0.70;0.70;;;20.40;74.30;;;;;;5063030;28;20230;-37
2022/08/07 05:21:42;;;;;;;0.80;0.80;;;20.40;74.40;;;;;;5063816;28;20201;-43
2022/08/07 05:24:12;;;;;;;0.82;0.70;;;20.50;74.40;;;;;;5062302;28;20224;-43
2022/08/07 05:26:41;;;;;;;1.00;0.90;;;20.50;74.40;;;;;;5065134;28;20205;-40
2022/08/07 05:29:11;;;;;;;0.82;0.82;;;20.50;74.50;;;;;;5061349;28;20186;-40
2022/08/07 05:31:40;;;;;;;1.48;1.05;;;20.50;74.60;;;;;;5065824;28;20549;-41
2022/08/07 05:34:15;;;;;;;1.20;1.10;;;20.50;74.60;;;;;;5062319;28;20254;-42
2022/08/07 05:36:46;;;;;;;1.10;0.95;;;20.50;74.60;;;;;;5064302;28;20210;-40
2022/08/07 05:39:26;;;;;;;1.80;0.93;;;20.60;74.70;;;;;;5064787;28;20215;-40
2022/08/07 05:41:58;;;;;;;1.13;0.77;;;20.60;74.80;;;;;;5065127;28;20203;-39
2022/08/07 05:44:28;;;;;;;0.75;0.73;;;20.60;74.70;;;;;;5066375;28;20189;-40
2022/08/07 05:46:55;;;;;;;1.02;0.93;;;20.60;74.70;;;;;;5068796;28;20193;-45
2022/08/07 05:49:26;;;;;;;1.17;0.85;;;20.60;74.80;;;;;;5068133;28;20660;-39
2022/08/07 05:51:55;;;;;;;0.90;0.90;;;20.60;75.10;;;;;;5066329;28;20667;-40
2022/08/07 05:54:24;;;;;;;0.75;0.75;;;20.60;75.00;;;;;;5066642;28;20220;-42
2022/08/07 05:56:53;;;;;;;0.90;0.90;;;20.60;75.10;;;;;;5068579;28;20212;-39
2022/08/07 05:59:22;;;;;;;0.70;0.70;;;20.60;75.20;;;;;;5067593;28;20215;-41
2022/08/07 06:01:58;;;;;;;0.95;0.95;;;20.60;75.30;;;;;;5068832;28;20225;-41
2022/08/07 06:04:28;;;;;;;0.57;0.57;;;20.70;75.30;;;;;;5067623;28;20219;-45
2022/08/07 06:06:56;;;;;;;0.70;0.70;;;20.80;75.40;;;;;;5070943;28;20201;-40
2022/08/07 06:09:24;;;;;;;0.70;0.70;;;20.80;75.30;;;;;;5069722;28;20205;-39
2022/08/07 06:11:51;;;;;;;0.55;0.55;;;20.90;75.40;;;;;;5072420;28;20273;-39
2022/08/07 06:14:21;;;;;;;0.60;0.60;;;20.90;75.30;;;;;;5068076;28;20308;-39
2022/08/07 06:16:53;;;;;;;0.50;0.50;;;21.00;75.30;;;;;;5100212;27;20206;-44
2022/08/07 06:19:22;;;;;;;0.47;0.47;;;21.00;75.20;;;;;;5103037;28;20216;-43
2022/08/07 06:21:51;;;;;;;0.68;0.60;;;21.10;76.00;;;;;;5068756;28;20639;-39
2022/08/07 06:24:18;;;;;;;0.55;0.55;;;21.20;75.00;;;;;;5065282;28;20642;-42
2022/08/07 06:26:45;;;;;;;0.85;0.75;;;21.20;74.80;;;;;;5067760;28;20227;-39
2022/08/07 06:29:12;;;;;;;1.45;0.60;;;21.20;74.60;;;;;;5065272;28;20198;-38
2022/08/07 06:31:39;;;;;;;0.50;0.50;;;21.30;74.40;;;;;;5068402;28;20201;-41
2022/08/07 06:34:07;;;;;;;0.60;0.60;;;21.40;74.30;;;;;;5067416;28;20200;-43
2022/08/07 06:36:34;;;;;;;0.32;0.32;;;21.50;74.20;;;;;;5065861;28;20194;-40
2022/08/07 06:39:02;;;;;;;0.50;0.50;;;21.50;74.10;;;;;;5068522;28;20266;-40
2022/08/07 06:41:35;;;;;;;0.40;0.40;;;21.50;73.90;;;;;;5064754;28;20190;-40
2022/08/07 06:44:05;;;;;;;0.60;0.60;;;21.60;74.70;;;;;;5062774;28;20248;-41
2022/08/07 06:46:34;;;;;;;0.47;0.47;;;21.70;73.80;;;;;;5067000;28;20661;-40
2022/08/07 06:49:01;;;;;;;0.55;0.55;;;21.70;73.60;;;;;;5063686;28;20643;-41
2022/08/07 06:51:31;;;;;;;0.70;0.70;;;21.80;73.70;;;;;;5065718;28;20201;-41
2022/08/07 06:54:02;;;;;;;2.05;0.82;;;21.80;73.60;;;;;;5066002;28;20203;-40
2022/08/07 06:56:42;;;;;;;0.70;0.70;;;21.90;73.70;;;;;;5100413;28;20197;-40
2022/08/07 06:59:18;;;;;;;1.85;0.60;;;21.90;73.50;;;;;;5059737;28;20207;-38
2022/08/07 07:01:50;;;;;;;0.80;0.80;;;22.00;73.40;;;;;;5068827;28;20284;-38
2022/08/07 07:04:18;;;;;;;0.90;0.70;;;22.00;73.40;;;;;;5067943;28;20695;-41
2022/08/07 07:06:45;;;;;;;0.73;0.70;;;22.00;73.30;;;;;;5069326;28;20206;-45
2022/08/07 07:09:20;;;;;;;0.50;0.50;;;22.10;73.40;;;;;;5067639;28;20672;-40
2022/08/07 07:11:59;;;;;;;0.98;0.95;;;22.10;73.40;;;;;;5068114;28;20224;-43
2022/08/07 07:14:31;;;;;;;0.70;0.70;;;22.20;73.40;;;;;;5066701;28;20296;-38
2022/08/07 07:17:03;;;;;;;0.75;0.63;;;22.30;73.60;;;;;;5069813;28;20228;-39
2022/08/07 07:19:33;;;;;;;0.70;0.70;;;22.40;73.40;;;;;;5064731;28;20206;-41
2022/08/07 07:22:02;;;;;;;0.82;0.75;;;22.40;73.00;;;;;;5068497;28;20204;-39
2022/08/07 07:24:29;;;;;;;0.70;0.70;;;22.50;72.70;;;;;;5064225;28;20370;-39
2022/08/07 07:27:00;;;;;;;0.57;0.50;;;22.60;72.50;;;;;;5069248;28;20220;-41
2022/08/07 07:29:33;;;;;;;0.90;0.60;;;22.70;72.10;;;;;;5064284;28;20216;-40
2022/08/07 07:32:03;;;;;;;0.63;0.63;;;22.70;71.80;;;;;;5066982;28;20193;-41
2022/08/07 07:34:31;;;;;;;0.50;0.50;;;22.80;71.50;;;;;;5065440;28;20193;-40
2022/08/07 07:37:00;;;;;;;0.55;0.55;;;22.80;71.20;;;;;;5068268;28;20233;-42
2022/08/07 07:39:29;;;;;;;0.50;0.50;;;23.00;71.00;;;;;;5067308;28;20700;-41
2022/08/07 07:42:00;;;;;;;1.60;0.60;;;23.00;70.80;;;;;;5067888;28;20649;-39
2022/08/07 07:44:28;;;;;;;1.40;0.60;;;23.10;70.40;;;;;;5065299;28;20591;-39
2022/08/07 07:46:57;;;;;;;0.50;0.50;;;23.10;70.20;;;;;;5067773;28;20193;-42
2022/08/07 07:49:27;;;;;;;1.50;0.50;;;23.20;70.30;;;;;;5066436;28;20289;-38
2022/08/07 07:51:57;;;;;;;0.57;0.55;;;23.20;70.10;;;;;;5066947;28;20276;-39
2022/08/07 07:54:26;;;;;;;0.55;0.55;;;23.30;70.10;;;;;;5069101;28;20213;-38
2022/08/07 07:56:55;;;;;;;0.40;0.40;;;23.30;69.50;;;;;;5067479;28;20284;-40
2022/08/07 07:59:24;;;;;;;0.50;0.50;;;23.30;68.50;;;;;;5064664;28;20216;-40
2022/08/07 08:01:53;;;;;;;0.70;0.60;;;23.30;68.10;;;;;;5067553;28;20197;-39
2022/08/07 08:04:21;;;;;;;0.50;0.50;;;23.30;67.80;;;;;;5069335;28;20664;-40
2022/08/07 08:06:49;;;;;;;0.50;0.50;;;23.30;67.80;;;;;;5067409;28;20199;-39
2022/08/07 08:09:20;;;;;;;0.60;0.60;;;23.50;68.00;;;;;;5069191;28;20235;-39
2022/08/07 08:11:47;;;;;;;0.50;0.50;;;23.50;67.70;;;;;;5070493;28;20621;-39
2022/08/07 08:14:16;;;;;;;2.05;0.55;;;23.60;67.40;;;;;;5069386;28;20303;-40
2022/08/07 08:16:46;;;;;;;1.38;0.52;;;23.70;67.00;;;;;;5068737;28;20197;-42
2022/08/07 08:19:15;;;;;;;0.50;0.50;;;23.60;66.10;;;;;;5068808;28;20212;-41
2022/08/07 08:27:22;;;;;;;0.60;0.60;;;23.60;66.20;;;;;;5068421;28;20311;-38
2022/08/07 08:29:54;;;;;;;0.50;0.50;;;23.60;64.70;;;;;;5065542;28;20189;-44
2022/08/07 08:32:25;;;;;;;1.60;0.70;;;23.60;64.50;;;;;;5067848;28;20185;-42
2022/08/07 08:34:54;;;;;;;0.80;0.80;;;23.70;64.50;;;;;;5065472;28;20280;-39
2022/08/07 08:37:23;;;;;;;0.52;0.52;;;23.80;64.40;;;;;;5066792;28;20204;-39
2022/08/07 08:39:51;;;;;;;0.68;0.63;;;23.90;64.40;;;;;;5064761;28;20213;-43
2022/08/07 08:42:25;;;;;;;1.55;0.75;;;23.90;63.90;;;;;;5066230;28;20224;-46
2022/08/07 08:45:02;;;;;;;0.60;0.60;;;24.00;63.80;;;;;;5063146;28;20197;-43
2022/08/07 08:47:38;;;;;;;0.75;0.75;;;24.00;63.90;;;;;;5064285;28;20242;-44
2022/08/07 08:50:14;;;;;;;0.60;0.60;;;24.00;63.40;;;;;;5067734;28;20276;-40
2022/08/07 08:52:51;;;;;;;0.60;0.60;;;24.00;63.00;;;;;;5068677;28;20250;-42
2022/08/07 08:55:25;;;;;;;0.50;0.50;;;24.00;62.50;;;;;;5066838;28;20609;-40
2022/08/07 08:58:00;;;;;;;1.23;0.60;;;24.10;62.60;;;;;;5066105;28;20190;-40
2022/08/07 09:00:32;;;;;;;0.70;0.70;;;24.20;62.50;;;;;;5062038;28;20286;-40
2022/08/07 09:03:08;;;;;;;0.80;0.80;;;24.20;62.40;;;;;;5066148;28;20216;-38
2022/08/07 09:05:46;;;;;;;0.50;0.50;;;24.20;62.20;;;;;;5065989;28;20209;-39
2022/08/07 09:08:31;;;;;;;0.50;0.50;;;24.20;62.10;;;;;;5065728;28;20200;-42
2022/08/07 09:11:11;;;;;;;0.60;0.60;;;24.20;61.90;;;;;;5069159;28;20242;-39
2022/08/07 09:13:46;;;;;;;1.73;0.70;;;24.20;61.30;;;;;;5067156;28;20330;-40
2022/08/07 09:16:21;;;;;;;0.60;0.60;;;24.20;61.30;;;;;;5065891;28;20193;-39
2022/08/07 09:19:14;;;;;;;0.52;0.52;;;24.20;61.40;;;;;;5067327;28;20221;-42
2022/08/07 09:21:49;;;;;;;0.73;0.73;;;24.30;61.50;;;;;;5067928;28;20269;-47
2022/08/07 09:24:34;;;;;;;0.70;0.70;;;24.40;61.20;;;;;;5069742;28;20270;-40
2022/08/07 09:27:09;;;;;;;0.57;0.57;;;24.30;60.80;;;;;;5070403;28;20556;-39
2022/08/07 09:29:53;;;;;;;0.60;0.60;;;24.30;60.70;;;;;;5067981;28;20542;-46
2022/08/07 09:32:31;;;;;;;0.50;0.50;;;24.20;60.80;;;;;;5069983;28;20246;-40
2022/08/07 09:35:08;;;;;;;0.60;0.60;;;24.20;60.90;;;;;;5068254;28;20283;-41
2022/08/07 09:37:41;;;;;;;0.50;0.50;;;24.20;60.80;;;;;;5065976;28;20201;-42
2022/08/07 09:40:20;;;;;;;4.05;0.70;;;24.10;60.70;;;;;;5069060;28;20252;-41
2022/08/07 09:42:56;;;;;;;0.50;0.50;;;24.10;60.00;;;;;;5068219;28;20193;-40
2022/08/07 09:45:39;;;;;;;0.50;0.50;;;24.10;59.50;;;;;;5072808;28;20298;-40
2022/08/07 09:48:22;;;;;;;0.60;0.60;;;24.10;58.70;;;;;;5068816;28;20268;-39
2022/08/07 09:51:05;;;;;;;0.80;0.50;;;24.20;58.30;;;;;;5068819;28;20273;-44
2022/08/07 09:53:37;;;;;;;0.40;0.40;;;24.20;58.10;;;;;;5068738;28;20212;-41
2022/08/07 09:56:31;;;;;;;0.40;0.40;;;24.20;58.10;;;;;;5072266;28;20193;-40
2022/08/07 09:59:10;;;;;;;0.60;0.60;;;24.20;58.00;;;;;;5067009;28;20297;-40
2022/08/07 10:01:52;;;;;;;0.40;0.40;;;24.20;58.10;;;;;;5070184;28;20228;-44
2022/08/07 10:04:31;;;;;;;0.50;0.50;;;24.30;58.10;;;;;;5068538;28;20196;-41
2022/08/07 10:07:25;;;;;;;0.40;0.40;;;24.40;58.20;;;;;;5070552;28;20311;-39
2022/08/07 10:10:13;;;;;;;0.85;0.70;;;24.40;58.20;;;;;;5068135;28;20596;-42
2022/08/07 10:12:54;;;;;;;0.70;0.70;;;24.50;58.30;;;;;;5068038;28;20533;-41
2022/08/07 10:15:45;;;;;;;1.63;1.00;;;24.60;58.00;;;;;;5068936;28;20212;-39
2022/08/07 10:18:37;;;;;;;0.70;0.70;;;24.70;58.10;;;;;;5069017;28;20204;-40
2022/08/07 10:21:21;;;;;;;0.77;0.77;;;24.80;58.20;;;;;;5067120;28;20299;-43
2022/08/07 10:24:04;;;;;;;1.42;0.70;;;24.90;58.30;;;;;;5064464;28;20229;-40
2022/08/07 10:26:43;;;;;;;0.80;0.80;;;24.90;58.30;;;;;;5067862;28;20285;-39
2022/08/07 10:29:37;;;;;;;0.70;0.70;;;24.90;58.10;;;;;;5064688;28;20198;-39
2022/08/07 10:32:27;;;;;;;0.68;0.68;;;25.00;57.80;;;;;;5070841;28;20281;-38
2022/08/07 10:35:07;;;;;;;0.77;0.75;;;25.00;57.70;;;;;;5068681;28;20197;-40
2022/08/07 10:37:45;;;;;;;0.63;0.63;;;25.00;57.60;;;;;;5067613;28;20197;-39
2022/08/07 10:40:19;;;;;;;0.63;0.50;;;25.00;57.60;;;;;;5068906;28;20295;-40
2022/08/07 10:42:57;;;;;;;1.35;0.60;;;25.00;57.50;;;;;;5065643;28;20650;-42
2022/08/07 10:45:30;;;;;;;0.68;0.68;;;25.00;57.70;;;;;;5068063;28;20193;-46
2022/08/07 10:48:12;;;;;;;1.33;0.70;;;25.00;58.10;;;;;;5065805;28;20221;-40
2022/08/07 10:50:45;;;;;;;4.63;1.13;;;24.90;59.80;;;;;;5066609;28;20198;-39
2022/08/07 10:53:23;;;;;;;3.58;0.82;;;24.70;61.60;;;;;;5066525;28;20634;-39
2022/08/07 10:56:02;;;;;;;3.33;0.90;;;24.50;62.50;;;;;;5065308;28;20668;-39
2022/08/07 10:58:46;;;;;;;1.33;0.73;;;24.40;63.60;;;;;;5066305;28;20208;-41
2022/08/07 11:01:31;;;;;;;1.48;0.68;;;24.30;63.70;;;;;;5065751;28;20293;-41
2022/08/07 11:04:06;;;;;;;6.68;1.08;;;24.30;64.10;;;;;;5066509;28;20676;-41
2022/08/07 11:06:53;;;;;;;0.95;0.63;;;24.20;63.90;;;;;;5069171;28;20196;-43
2022/08/07 11:09:24;;;;;;;1.13;0.88;;;24.20;64.80;;;;;;5069373;28;20185;-44
2022/08/07 11:11:58;;;;;;;0.93;0.80;;;24.20;64.50;;;;;;5070551;28;20907;-38
2022/08/07 11:14:30;;;;;;;1.48;0.80;;;24.20;64.80;;;;;;5068704;28;20189;-40
2022/08/07 11:17:03;;;;;;;0.65;0.50;;;24.10;64.60;;;;;;5069995;28;20197;-39
2022/08/07 11:19:37;;;;;;;2.03;0.80;;;24.10;64.70;;;;;;5067936;28;20197;-42
2022/08/07 11:22:10;;;;;;;1.10;0.90;;;24.10;64.80;;;;;;5068968;28;20225;-39
2022/08/07 11:24:42;;;;;;;1.58;1.17;;;24.00;64.50;;;;;;5066944;28;20239;-41
2022/08/07 11:27:18;;;;;;;1.33;1.08;;;24.00;64.00;;;;;;5069576;28;20295;-41
2022/08/07 11:30:00;;;;;;;0.80;0.80;;;24.00;63.80;;;;;;5065868;28;20197;-40
2022/08/07 11:32:36;;;;;;;1.63;0.70;;;24.00;63.80;;;;;;5067263;28;20220;-42
2022/08/07 11:35:08;;;;;;;2.38;0.88;;;24.10;63.80;;;;;;5065894;28;20545;-39
2022/08/07 11:37:55;;;;;;;0.88;0.88;;;24.20;63.90;;;;;;5065447;28;20189;-39
2022/08/07 11:40:33;;;;;;;1.10;1.00;;;24.40;63.60;;;;;;5068672;28;20232;-39
2022/08/07 11:43:08;;;;;;;4.10;1.02;;;24.60;63.40;;;;;;5062751;28;20192;-39
2022/08/07 11:45:50;;;;;;;0.90;0.80;;;24.70;62.50;;;;;;5070457;28;20263;-39
2022/08/07 11:48:32;;;;;;;1.42;1.15;;;24.70;62.20;;;;;;5069700;28;20641;-47
2022/08/07 11:51:17;;;;;;;2.83;0.95;;;24.80;62.00;;;;;;5069580;28;20264;-41
2022/08/07 11:53:52;;;;;;;0.80;0.80;;;24.70;62.60;;;;;;5068202;28;20216;-50
2022/08/07 11:56:33;;;;;;;2.42;0.90;;;24.70;63.30;;;;;;5064785;28;20193;-44
2022/08/07 11:59:15;;;;;;;1.80;0.88;;;24.70;63.50;;;;;;5063628;28;20703;-41
2022/08/07 12:01:51;;;;;;;3.83;1.25;;;24.70;63.40;;;;;;5066527;28;20241;-44
2022/08/07 12:04:38;;;;;;;1.50;0.60;;;24.70;63.30;;;;;;5067268;28;20193;-41
2022/08/07 12:07:14;;;;;;;0.47;0.47;;;24.60;63.10;;;;;;5066733;28;20299;-38
2022/08/07 12:09:49;;;;;;;1.48;0.82;;;24.70;63.20;;;;;;5066376;28;20193;-40
2022/08/07 12:12:21;;;;;;;2.30;1.10;;;24.70;63.10;;;;;;5064939;28;20188;-40
2022/08/07 12:14:58;;;;;;;0.75;0.63;;;24.60;63.10;;;;;;5068142;28;20194;-43
2022/08/07 12:17:42;;;;;;;0.80;0.80;;;24.60;63.80;;;;;;5068496;28;21499;-38
2022/08/07 12:20:16;;;;;;;0.85;0.75;;;24.50;64.40;;;;;;5063765;28;20662;-47
2022/08/07 12:23:06;;;;;;;1.20;0.80;;;24.40;64.90;;;;;;5067221;28;20193;-42
2022/08/07 12:25:52;;;;;;;0.70;0.70;;;24.40;65.40;;;;;;5066133;28;20193;-39
2022/08/07 12:28:28;;;;;;;3.67;0.80;;;24.30;65.40;;;;;;5062119;28;20279;-39
2022/08/07 12:31:03;;;;;;;1.42;0.70;;;24.20;65.30;;;;;;5066982;28;20185;-38
2022/08/07 12:33:32;;;;;;;1.92;0.80;;;24.10;65.40;;;;;;5066624;28;20197;-38
2022/08/07 12:36:01;;;;;;;2.17;0.60;;;24.00;65.70;;;;;;5068066;28;20208;-40
2022/08/07 12:38:29;;;;;;;1.23;0.77;;;24.00;66.00;;;;;;5067777;28;20197;-39
2022/08/07 12:40:59;;;;;;;1.70;0.80;;;24.00;66.30;;;;;;5066121;28;20639;-47
2022/08/07 12:43:32;;;;;;;0.90;0.80;;;24.10;66.90;;;;;;5064839;28;20218;-50
2022/08/07 12:46:19;;;;;;;1.13;0.80;;;24.20;66.90;;;;;;5067129;28;20202;-39
2022/08/07 12:48:57;;;;;;;2.45;0.90;;;24.30;67.20;;;;;;5066927;28;20607;-39
2022/08/07 12:51:27;;;;;;;1.27;0.88;;;24.20;67.20;;;;;;5063757;28;20201;-40
2022/08/07 12:54:01;;;;;;;0.80;0.73;;;24.20;67.10;;;;;;5062490;28;20262;-39
2022/08/07 12:56:33;;;;;;;1.00;0.90;;;24.10;66.90;;;;;;5069271;28;20197;-39
2022/08/07 12:59:03;;;;;;;1.30;0.77;;;24.10;67.10;;;;;;5063580;28;20592;-41
2022/08/07 13:01:42;;;;;;;1.00;0.55;;;24.10;67.20;;;;;;5067117;28;20300;-39
2022/08/07 13:04:30;;;;;;;1.02;0.93;;;24.20;67.50;;;;;;5065872;28;20221;-43
2022/08/07 13:07:16;;;;;;;1.52;0.70;;;24.20;67.30;;;;;;5062771;28;20480;-39
2022/08/07 13:10:01;;;;;;;3.13;0.90;;;24.30;67.30;;;;;;5066175;28;20664;-43
2022/08/07 13:12:37;;;;;;;3.83;1.17;;;24.40;67.30;;;;;;5067295;28;20188;-41
2022/08/07 13:15:19;;;;;;;2.10;0.82;;;24.40;67.40;;;;;;5065938;28;20282;-43
2022/08/07 13:17:57;;;;;;;2.13;0.80;;;24.50;67.30;;;;;;5066554;28;20228;-39
2022/08/07 13:20:35;;;;;;;0.57;0.57;;;24.50;67.00;;;;;;5066607;28;20313;-38
2022/08/07 13:23:09;;;;;;;1.35;0.80;;;24.50;66.90;;;;;;5068237;28;20613;-38